createdAt,value
2019-05-07T00:00:34.428Z,67.60
2019-05-07T00:03:05.552Z,67.50
2019-05-07T00:05:35.880Z,68.00
2019-05-07T00:08:05.729Z,68.00
2019-05-07T00:10:35.254Z,68.10
2019-05-07T00:13:05.475Z,67.90
2019-05-07T00:15:35.302Z,67.60
2019-05-07T00:18:06.154Z,67.70
2019-05-07T00:20:35.686Z,67.90
2019-05-07T00:23:05.426Z,69.20
2019-05-07T00:25:35.150Z,68.00
2019-05-07T00:28:05.508Z,68.80
2019-05-07T00:30:35.388Z,70.20
2019-05-07T00:33:04.827Z,70.60
2019-05-07T00:35:42.891Z,71.60
2019-05-07T00:38:17.274Z,72.00
2019-05-07T00:40:52.039Z,71.70
2019-05-07T00:43:24.384Z,71.10
2019-05-07T00:45:57.098Z,70.80
2019-05-07T00:48:27.347Z,70.60
2019-05-07T00:50:59.021Z,70.30
2019-05-07T00:53:28.769Z,69.90
2019-05-07T00:55:58.509Z,69.70
2019-05-07T00:58:28.394Z,69.30
2019-05-07T01:00:58.141Z,69.50
2019-05-07T01:03:28.022Z,69.70
2019-05-07T01:05:57.947Z,69.70
2019-05-07T01:08:27.927Z,69.50
2019-05-07T01:10:57.361Z,69.20
2019-05-07T01:13:27.007Z,68.40
2019-05-07T01:15:57.311Z,68.90
2019-05-07T01:18:27.261Z,69.50
2019-05-07T01:20:57.418Z,69.50
2019-05-07T01:23:27.115Z,70.50
2019-05-07T01:25:56.857Z,70.30
2019-05-07T01:28:26.525Z,70.00
2019-05-07T01:30:56.277Z,69.80
2019-05-07T01:33:34.346Z,69.70
2019-05-07T01:36:15.385Z,69.70
2019-05-07T01:38:45.423Z,69.90
2019-05-07T01:41:14.977Z,70.50
2019-05-07T01:43:44.613Z,70.50
2019-05-07T01:46:13.970Z,71.30
2019-05-07T01:48:43.895Z,71.70
2019-05-07T01:51:13.564Z,71.90
2019-05-07T01:53:43.298Z,71.90
2019-05-07T01:56:12.881Z,71.80
2019-05-07T01:58:42.651Z,71.80
2019-05-07T02:01:13.207Z,71.70
2019-05-07T02:03:47.518Z,71.00
2019-05-07T02:09:28.159Z,70.60
2019-05-07T02:12:02.623Z,70.50
2019-05-07T02:14:33.130Z,71.10
2019-05-07T02:17:03.202Z,71.00
2019-05-07T02:19:33.170Z,70.90
2019-05-07T02:22:04.376Z,71.20
2019-05-07T02:24:34.634Z,72.30
2019-05-07T02:27:04.176Z,73.00
2019-05-07T02:29:33.803Z,72.70
2019-05-07T02:32:04.600Z,72.80
2019-05-07T02:34:35.266Z,72.50
2019-05-07T02:37:06.718Z,72.60
2019-05-07T02:39:44.685Z,72.70
2019-05-07T02:42:14.460Z,72.60
2019-05-07T02:45:04.161Z,72.50
2019-05-07T02:47:34.854Z,72.30
2019-05-07T02:50:12.937Z,72.80
2019-05-07T02:52:59.842Z,73.10
2019-05-07T02:55:33.907Z,73.60
2019-05-07T02:58:03.974Z,73.70
2019-05-07T03:00:34.334Z,73.80
2019-05-07T03:03:04.703Z,73.80
2019-05-07T03:05:35.309Z,73.80
2019-05-07T03:08:05.547Z,73.50
2019-05-07T03:10:35.036Z,73.20
2019-05-07T03:13:04.820Z,73.10
2019-05-07T03:15:35.324Z,72.60
2019-05-07T03:18:05.209Z,72.60
2019-05-07T03:20:42.991Z,72.30
2019-05-07T03:23:14.348Z,72.80
2019-05-07T03:25:54.024Z,72.80
2019-05-07T03:28:26.553Z,72.60
2019-05-07T03:31:09.734Z,72.50
2019-05-07T03:33:46.576Z,72.30
2019-05-07T03:36:16.583Z,72.40
2019-05-07T03:38:44.836Z,71.60
2019-05-07T03:41:14.471Z,71.50
2019-05-07T03:43:44.791Z,72.30
2019-05-07T03:46:18.798Z,72.60
2019-05-07T03:48:48.512Z,73.30
2019-05-07T03:51:18.769Z,73.40
2019-05-07T03:53:48.316Z,73.50
2019-05-07T03:56:19.479Z,73.40
2019-05-07T03:58:49.260Z,73.40
2019-05-07T04:01:18.699Z,73.50
2019-05-07T04:03:48.346Z,73.30
2019-05-07T04:06:19.157Z,73.50
2019-05-07T04:08:49.017Z,73.40
2019-05-07T04:11:18.917Z,73.10
2019-05-07T04:13:49.071Z,73.10
2019-05-07T04:16:19.800Z,72.70
2019-05-07T04:18:52.813Z,72.80
2019-05-07T04:21:23.161Z,72.60
2019-05-07T04:23:54.795Z,72.40
2019-05-07T04:26:33.891Z,72.90
2019-05-07T04:29:06.147Z,73.00
2019-05-07T04:31:55.805Z,73.20
2019-05-07T04:34:44.671Z,73.20
2019-05-07T04:37:15.410Z,72.60
2019-05-07T04:39:54.055Z,72.60
2019-05-07T04:42:24.746Z,73.30
2019-05-07T04:44:54.338Z,73.20
2019-05-07T04:47:41.221Z,73.00
2019-05-07T04:49:56.047Z,72.80
2019-05-07T04:52:36.725Z,73.20
2019-05-07T04:55:07.678Z,73.70
2019-05-07T04:57:37.346Z,73.20
2019-05-07T05:00:09.212Z,72.60
2019-05-07T05:02:53.155Z,72.50
2019-05-07T05:05:24.050Z,71.50
2019-05-07T05:07:53.880Z,69.30
2019-05-07T05:10:23.823Z,69.40
2019-05-07T05:12:53.929Z,70.40
2019-05-07T05:15:23.850Z,71.20
2019-05-07T05:17:54.136Z,71.80
2019-05-07T05:20:25.894Z,71.80
2019-05-07T05:23:03.480Z,71.30
2019-05-07T05:25:34.765Z,71.20
2019-05-07T05:28:04.750Z,70.90
2019-05-07T05:30:36.827Z,70.10
2019-05-07T05:33:06.532Z,70.40
2019-05-07T05:35:38.598Z,70.20
2019-05-07T05:38:12.729Z,70.10
2019-05-07T05:40:42.953Z,69.40
2019-05-07T05:43:31.774Z,69.40
2019-05-07T05:46:07.230Z,69.10
2019-05-07T05:48:38.553Z,68.80
2019-05-07T05:51:25.183Z,68.60
2019-05-07T05:54:02.809Z,68.60
2019-05-07T05:56:51.862Z,69.00
2019-05-07T05:59:32.502Z,68.40
2019-05-07T06:02:06.483Z,68.20
2019-05-07T06:04:49.006Z,68.10
2019-05-07T06:07:24.227Z,68.50
2019-05-07T06:10:02.552Z,69.50
2019-05-07T06:12:42.701Z,68.80
2019-05-07T06:15:30.171Z,69.10
2019-05-07T06:18:02.771Z,69.20
2019-05-07T06:20:53.551Z,69.10
2019-05-07T06:23:25.188Z,69.60
2019-05-07T06:25:55.150Z,67.90
2019-05-07T06:28:25.082Z,68.30
2019-05-07T06:30:54.609Z,66.80
2019-05-07T06:33:24.443Z,67.40
2019-05-07T06:35:53.997Z,68.20
2019-05-07T06:38:26.332Z,67.10
2019-05-07T06:41:02.546Z,67.70
2019-05-07T06:43:36.036Z,68.20
2019-05-07T06:46:14.457Z,68.30
2019-05-07T06:48:46.240Z,68.60
2019-05-07T06:51:17.557Z,67.50
2019-05-07T06:53:48.060Z,68.20
2019-05-07T06:56:18.111Z,68.60
2019-05-07T06:58:49.618Z,68.20
2019-05-07T07:01:22.789Z,67.70
2019-05-07T07:04:02.338Z,67.80
2019-05-07T07:06:48.859Z,66.00
2019-05-07T07:09:29.355Z,67.50
2019-05-07T07:12:01.995Z,65.70
2019-05-07T07:14:33.114Z,65.10
2019-05-07T07:17:03.347Z,64.80
2019-05-07T07:19:35.887Z,66.30
2019-05-07T07:22:05.094Z,65.90
2019-05-07T07:24:35.261Z,65.50
2019-05-07T07:27:05.095Z,65.30
2019-05-07T07:29:36.735Z,65.40
2019-05-07T07:32:08.422Z,64.60
2019-05-07T07:34:43.672Z,64.50
2019-05-07T07:37:17.901Z,64.70
2019-05-07T07:39:47.485Z,64.70
2019-05-07T07:42:17.506Z,64.00
2019-05-07T07:44:48.693Z,62.10
2019-05-07T07:47:18.158Z,63.00
2019-05-07T07:49:47.977Z,63.00
2019-05-07T07:52:17.423Z,60.60
2019-05-07T07:54:47.490Z,62.30
2019-05-07T07:57:18.857Z,60.20
2019-05-07T07:59:50.152Z,61.80
2019-05-07T08:02:23.110Z,62.40
2019-05-07T08:04:52.931Z,62.00
2019-05-07T08:07:22.976Z,60.40
2019-05-07T08:09:52.917Z,62.10
2019-05-07T08:12:22.401Z,60.60
2019-05-07T08:14:52.108Z,60.40
2019-05-07T08:17:22.546Z,59.70
2019-05-07T08:19:52.205Z,59.50
2019-05-07T08:22:22.650Z,58.50
2019-05-07T08:24:52.448Z,61.00
2019-05-07T08:27:22.371Z,58.60
2019-05-07T08:29:52.576Z,58.60
2019-05-07T08:32:24.192Z,59.70
2019-05-07T08:35:14.065Z,57.90
2019-05-07T08:37:43.074Z,56.90
2019-05-07T08:40:13.296Z,53.80
2019-05-07T08:42:44.421Z,56.30
2019-05-07T08:45:32.984Z,52.90
2019-05-07T08:48:13.413Z,52.40
2019-05-07T08:50:43.149Z,55.20
2019-05-07T08:53:13.339Z,51.70
2019-05-07T08:55:43.012Z,52.70
2019-05-07T08:58:33.744Z,45.20
2019-05-07T09:01:03.636Z,46.90
2019-05-07T09:03:45.187Z,42.20
2019-05-07T09:06:15.057Z,45.80
2019-05-07T09:08:46.008Z,39.20
2019-05-07T09:11:16.437Z,35.90
2019-05-07T09:13:46.161Z,36.80
2019-05-07T09:16:16.066Z,39.60
2019-05-07T09:18:45.787Z,38.10
2019-05-07T09:21:15.418Z,39.80
2019-05-07T09:23:45.630Z,32.30
2019-05-07T09:26:18.143Z,30.00
2019-05-07T09:28:52.274Z,32.30
2019-05-07T09:31:23.539Z,35.60
2019-05-07T09:33:54.737Z,35.60
2019-05-07T09:36:26.015Z,35.30
2019-05-07T09:38:58.970Z,37.40
2019-05-07T09:41:27.101Z,44.40
2019-05-07T09:43:57.769Z,37.00
2019-05-07T09:46:28.393Z,36.80
2019-05-07T09:48:58.047Z,35.00
2019-05-07T09:51:27.796Z,35.10
2019-05-07T09:53:57.718Z,36.30
2019-05-07T09:56:28.142Z,37.10
2019-05-07T09:58:58.348Z,38.20
2019-05-07T10:01:28.280Z,40.30
2019-05-07T10:03:59.340Z,36.60
2019-05-07T10:06:29.059Z,38.10
2019-05-07T10:08:58.879Z,36.10
2019-05-07T10:11:32.752Z,37.10
2019-05-07T10:14:12.329Z,34.80
2019-05-07T10:17:02.608Z,37.80
2019-05-07T10:19:32.562Z,37.00
2019-05-07T10:22:02.453Z,34.10
2019-05-07T10:24:32.526Z,37.00
2019-05-07T10:27:02.512Z,36.00
2019-05-07T10:29:32.406Z,33.90
2019-05-07T10:32:02.406Z,31.40
2019-05-07T10:34:32.180Z,32.10
2019-05-07T10:37:02.710Z,33.10
2019-05-07T10:39:32.682Z,29.20
2019-05-07T10:42:02.550Z,29.50
2019-05-07T10:44:36.470Z,29.30
2019-05-07T10:47:24.392Z,30.00
2019-05-07T10:50:12.026Z,29.40
2019-05-07T10:52:42.481Z,31.70
2019-05-07T10:55:13.079Z,33.10
2019-05-07T10:57:42.673Z,32.80
2019-05-07T11:00:16.377Z,32.50
2019-05-07T11:02:47.599Z,32.20
2019-05-07T11:05:17.979Z,33.60
2019-05-07T11:07:49.198Z,32.60
2019-05-07T11:10:21.819Z,30.70
2019-05-07T11:12:51.868Z,29.10
2019-05-07T11:15:22.079Z,31.40
2019-05-07T11:18:02.841Z,33.20
2019-05-07T11:20:46.551Z,34.00
2019-05-07T11:23:05.362Z,32.80
2019-05-07T11:25:35.343Z,28.90
2019-05-07T11:28:05.749Z,29.60
2019-05-07T11:30:35.559Z,29.80
2019-05-07T11:33:05.225Z,29.40
2019-05-07T11:35:34.887Z,28.60
2019-05-07T11:38:17.757Z,27.20
2019-05-07T11:40:35.796Z,28.50
2019-05-07T11:43:13.213Z,31.20
2019-05-07T11:45:44.536Z,32.20
2019-05-07T11:48:14.527Z,32.90
2019-05-07T11:51:04.292Z,29.60
2019-05-07T11:53:41.790Z,29.80
2019-05-07T11:56:11.736Z,30.10
2019-05-07T11:58:43.347Z,29.20
2019-05-07T12:01:14.609Z,32.80
2019-05-07T12:03:44.402Z,29.20
2019-05-07T12:06:13.776Z,31.30
2019-05-07T12:08:51.301Z,30.60
2019-05-07T12:11:14.858Z,30.70
2019-05-07T12:13:44.792Z,30.40
2019-05-07T12:16:14.475Z,32.10
2019-05-07T12:18:44.204Z,29.40
2019-05-07T12:21:20.234Z,29.70
2019-05-07T12:23:44.858Z,27.50
2019-05-07T12:26:14.517Z,29.30
2019-05-07T12:28:44.470Z,28.90
2019-05-07T12:31:28.223Z,29.30
2019-05-07T12:34:02.423Z,29.70
2019-05-07T12:36:32.140Z,28.80
2019-05-07T12:39:02.270Z,29.80
2019-05-07T12:41:34.148Z,24.90
2019-05-07T12:44:07.170Z,24.10
2019-05-07T12:46:37.353Z,30.20
2019-05-07T12:49:06.918Z,25.20
2019-05-07T12:51:38.612Z,24.80
2019-05-07T12:54:14.376Z,27.00
2019-05-07T12:56:44.286Z,26.40
2019-05-07T12:59:14.036Z,25.10
2019-05-07T13:01:48.519Z,25.90
2019-05-07T13:04:29.062Z,24.00
2019-05-07T13:07:12.864Z,24.70
2019-05-07T13:09:42.846Z,24.90
2019-05-07T13:12:12.601Z,27.10
2019-05-07T13:14:42.252Z,26.00
2019-05-07T13:17:12.094Z,26.80
2019-05-07T13:19:42.518Z,25.80
2019-05-07T13:22:13.023Z,27.20
2019-05-07T13:24:42.794Z,25.90
2019-05-07T13:27:12.415Z,24.90
2019-05-07T13:29:44.848Z,26.40
2019-05-07T13:32:15.535Z,26.30
2019-05-07T13:34:47.308Z,29.80
2019-05-07T13:37:19.055Z,24.50
2019-05-07T13:39:56.619Z,27.50
2019-05-07T13:42:44.360Z,21.50
2019-05-07T13:45:18.495Z,24.80
2019-05-07T13:47:51.801Z,22.90
2019-05-07T13:50:22.120Z,25.00
2019-05-07T13:52:51.975Z,25.50
2019-05-07T13:55:21.933Z,20.40
2019-05-07T13:57:52.417Z,23.20
2019-05-07T14:00:24.499Z,19.70
2019-05-07T14:02:55.044Z,19.90
2019-05-07T14:05:24.799Z,22.10
2019-05-07T14:07:54.597Z,23.90
2019-05-07T14:10:24.199Z,20.50
2019-05-07T14:13:07.615Z,25.00
2019-05-07T14:15:26.933Z,23.40
2019-05-07T14:17:56.915Z,18.50
2019-05-07T14:20:26.386Z,20.70
2019-05-07T14:22:56.875Z,17.70
2019-05-07T14:25:26.707Z,18.70
2019-05-07T14:27:58.815Z,17.90
2019-05-07T14:30:28.061Z,18.60
2019-05-07T14:33:01.843Z,20.30
2019-05-07T14:35:36.091Z,18.30
2019-05-07T14:38:13.857Z,19.60
2019-05-07T14:40:44.109Z,19.50
2019-05-07T14:43:21.943Z,20.60
2019-05-07T14:45:52.273Z,23.20
2019-05-07T14:48:22.762Z,24.20
2019-05-07T14:50:53.087Z,22.80
2019-05-07T14:53:23.174Z,23.30
2019-05-07T14:55:52.781Z,22.20
2019-05-07T14:58:22.648Z,21.90
2019-05-07T15:00:52.476Z,21.50
2019-05-07T15:03:22.869Z,20.10
2019-05-07T15:05:53.510Z,21.00
2019-05-07T15:08:23.401Z,22.60
2019-05-07T15:10:53.123Z,21.30
2019-05-07T15:13:22.968Z,21.10
2019-05-07T15:15:54.382Z,21.30
2019-05-07T15:18:28.375Z,23.40
2019-05-07T15:20:58.168Z,21.80
2019-05-07T15:23:32.429Z,20.30
2019-05-07T15:26:04.727Z,24.80
2019-05-07T15:28:35.989Z,24.40
2019-05-07T15:31:12.090Z,22.60
2019-05-07T15:33:41.779Z,23.00
2019-05-07T15:36:12.042Z,22.60
2019-05-07T15:38:42.888Z,23.90
2019-05-07T15:41:12.712Z,25.00
2019-05-07T15:43:45.883Z,24.40
2019-05-07T15:46:13.457Z,25.00
2019-05-07T15:48:43.415Z,24.80
2019-05-07T15:51:13.147Z,25.70
2019-05-07T15:53:52.229Z,25.70
2019-05-07T15:56:22.431Z,24.60
2019-05-07T15:58:52.085Z,24.90
2019-05-07T16:01:22.323Z,23.40
2019-05-07T16:03:54.968Z,24.20
2019-05-07T16:06:24.871Z,24.30
2019-05-07T16:08:56.236Z,24.30
2019-05-07T16:11:27.359Z,24.70
2019-05-07T16:14:06.848Z,25.10
2019-05-07T16:16:38.248Z,27.00
2019-05-07T16:19:12.703Z,25.10
2019-05-07T16:21:42.625Z,29.10
2019-05-07T16:24:12.570Z,28.30
2019-05-07T16:26:42.422Z,27.90
2019-05-07T16:29:13.296Z,29.10
2019-05-07T16:31:44.264Z,28.00
2019-05-07T16:34:14.174Z,26.10
2019-05-07T16:36:43.936Z,27.30
2019-05-07T16:39:14.423Z,26.80
2019-05-07T16:41:43.862Z,27.80
2019-05-07T16:44:14.222Z,26.00
2019-05-07T16:46:44.175Z,27.10
2019-05-07T16:49:14.282Z,26.50
2019-05-07T16:51:44.812Z,28.70
2019-05-07T16:54:14.481Z,27.40
2019-05-07T16:57:03.194Z,27.00
2019-05-07T16:59:32.854Z,28.10
2019-05-07T17:02:04.203Z,27.20
2019-05-07T17:04:33.648Z,25.70
2019-05-07T17:07:04.732Z,25.20
2019-05-07T17:09:35.496Z,25.80
2019-05-07T17:12:07.271Z,26.10
2019-05-07T17:14:37.619Z,26.80
2019-05-07T17:17:08.383Z,27.70
2019-05-07T17:19:38.406Z,26.20
2019-05-07T17:22:08.707Z,26.70
2019-05-07T17:24:38.468Z,27.30
2019-05-07T17:27:08.181Z,27.40
2019-05-07T17:29:37.624Z,29.30
2019-05-07T17:32:07.169Z,29.10
2019-05-07T17:34:37.394Z,29.10
2019-05-07T17:37:06.839Z,29.70
2019-05-07T17:39:36.823Z,29.10
2019-05-07T17:42:07.128Z,29.60
2019-05-07T17:44:37.176Z,30.30
2019-05-07T17:47:07.114Z,29.50
2019-05-07T17:49:36.832Z,28.30
2019-05-07T17:52:06.941Z,30.00
2019-05-07T17:54:36.752Z,29.90
2019-05-07T17:57:08.141Z,29.40
2019-05-07T17:59:38.272Z,32.50
2019-05-07T18:02:21.885Z,30.70
2019-05-07T18:04:54.071Z,30.20
2019-05-07T18:07:22.389Z,30.10
2019-05-07T18:09:52.250Z,31.00
2019-05-07T18:12:22.585Z,32.90
2019-05-07T18:14:52.854Z,34.10
2019-05-07T18:17:42.076Z,33.10
2019-05-07T18:20:12.895Z,35.10
2019-05-07T18:22:43.183Z,34.60
2019-05-07T18:25:12.778Z,35.20
2019-05-07T18:27:42.594Z,34.30
2019-05-07T18:30:12.938Z,35.20
2019-05-07T18:32:52.012Z,35.90
2019-05-07T18:35:23.130Z,35.30
2019-05-07T18:37:52.934Z,36.10
2019-05-07T18:40:23.097Z,37.90
2019-05-07T18:42:52.945Z,38.70
2019-05-07T18:45:22.428Z,35.80
2019-05-07T18:47:52.735Z,37.10
2019-05-07T18:50:22.847Z,37.70
2019-05-07T18:52:52.789Z,38.50
2019-05-07T18:55:22.781Z,39.70
2019-05-07T18:57:52.806Z,40.60
2019-05-07T19:00:24.656Z,41.50
2019-05-07T19:02:54.127Z,39.40
2019-05-07T19:05:23.764Z,38.90
2019-05-07T19:08:04.737Z,39.80
2019-05-07T19:10:25.677Z,39.80
2019-05-07T19:12:55.448Z,42.20
2019-05-07T19:15:25.402Z,40.80
2019-05-07T19:17:56.638Z,41.90
2019-05-07T19:20:26.401Z,41.40
2019-05-07T19:22:56.261Z,46.10
2019-05-07T19:25:26.382Z,45.20
2019-05-07T19:27:56.325Z,43.70
2019-05-07T19:30:26.008Z,45.30
2019-05-07T19:32:55.861Z,43.40
2019-05-07T19:35:25.383Z,42.60
2019-05-07T19:37:55.186Z,44.90
2019-05-07T19:40:24.718Z,44.80
2019-05-07T19:42:54.866Z,45.70
2019-05-07T19:45:24.865Z,45.90
2019-05-07T19:47:54.513Z,44.20
2019-05-07T19:50:24.230Z,45.00
2019-05-07T19:52:55.147Z,44.40
2019-05-07T19:55:26.355Z,43.00
2019-05-07T19:58:06.704Z,43.20
2019-05-07T20:00:36.498Z,44.90
2019-05-07T20:03:06.336Z,44.80
2019-05-07T20:05:37.408Z,45.40
2019-05-07T20:08:07.568Z,43.90
2019-05-07T20:10:38.989Z,44.40
2019-05-07T20:13:08.630Z,45.20
2019-05-07T20:15:39.906Z,44.20
2019-05-07T20:18:09.645Z,44.80
2019-05-07T20:20:39.807Z,43.80
2019-05-07T20:23:11.907Z,43.80
2019-05-07T20:25:42.001Z,42.80
2019-05-07T20:28:12.741Z,40.70
2019-05-07T20:30:42.750Z,42.40
2019-05-07T20:33:12.485Z,43.40
2019-05-07T20:35:43.747Z,47.40
2019-05-07T20:38:13.742Z,48.20
2019-05-07T20:40:43.593Z,44.00
2019-05-07T20:43:14.701Z,46.30
2019-05-07T20:45:44.070Z,45.90
2019-05-07T20:48:14.189Z,46.70
2019-05-07T20:50:44.125Z,46.20
2019-05-07T20:53:14.931Z,44.80
2019-05-07T20:55:48.856Z,45.70
2019-05-07T20:58:18.756Z,43.80
2019-05-07T21:00:48.503Z,44.60
2019-05-07T21:03:24.901Z,46.50
2019-05-07T21:05:54.851Z,45.90
2019-05-07T21:08:25.044Z,45.30
2019-05-07T21:10:54.889Z,44.80
2019-05-07T21:13:31.465Z,47.50
2019-05-07T21:15:57.561Z,45.80
2019-05-07T21:18:27.683Z,47.40
2019-05-07T21:20:57.442Z,44.20
2019-05-07T21:23:27.455Z,43.50
2019-05-07T21:25:58.219Z,42.40
2019-05-07T21:28:27.743Z,44.50
2019-05-07T21:30:57.379Z,43.80
2019-05-07T21:33:26.835Z,44.40
2019-05-07T21:35:57.307Z,43.50
2019-05-07T21:38:27.188Z,41.80
2019-05-07T21:40:56.918Z,43.40
2019-05-07T21:43:26.400Z,42.00
2019-05-07T21:45:56.404Z,43.40
2019-05-07T21:48:26.667Z,42.50
2019-05-07T21:50:56.504Z,41.60
2019-05-07T21:53:36.874Z,44.20
2019-05-07T21:56:26.655Z,42.60
2019-05-07T21:59:03.090Z,43.80
2019-05-07T22:01:34.174Z,41.10
2019-05-07T22:04:04.324Z,41.10
2019-05-07T22:06:34.086Z,41.30
2019-05-07T22:09:05.642Z,40.70
2019-05-07T22:11:35.447Z,41.00
2019-05-07T22:14:05.638Z,40.00
2019-05-07T22:16:35.588Z,41.30
2019-05-07T22:19:05.915Z,40.40
2019-05-07T22:21:35.690Z,40.10
2019-05-07T22:24:05.799Z,40.40
2019-05-07T22:26:35.643Z,42.30
2019-05-07T22:29:05.397Z,41.70
2019-05-07T22:31:44.272Z,40.30
2019-05-07T22:34:25.265Z,40.50
2019-05-07T22:36:55.193Z,40.10
2019-05-07T22:39:25.240Z,40.60
2019-05-07T22:41:55.280Z,40.40
2019-05-07T22:44:26.359Z,40.40
2019-05-07T22:46:58.137Z,40.80
2019-05-07T22:49:27.825Z,40.80
2019-05-07T22:51:57.763Z,40.20
2019-05-07T22:54:28.507Z,40.90
2019-05-07T22:57:08.779Z,40.80
2019-05-07T22:59:38.563Z,42.30
2019-05-07T23:02:08.748Z,41.30
2019-05-07T23:04:39.003Z,40.40
2019-05-07T23:07:08.539Z,40.60
2019-05-07T23:09:38.188Z,41.60
2019-05-07T23:12:07.679Z,42.50
2019-05-07T23:14:37.627Z,41.50
2019-05-07T23:17:07.596Z,40.50
2019-05-07T23:19:37.458Z,41.40
2019-05-07T23:22:07.398Z,41.50
2019-05-07T23:24:37.451Z,41.00
2019-05-07T23:27:06.987Z,41.40
2019-05-07T23:29:36.916Z,41.20
2019-05-07T23:32:06.595Z,41.70
2019-05-07T23:34:36.355Z,42.00
2019-05-07T23:37:06.045Z,42.40
2019-05-07T23:39:42.081Z,42.30
2019-05-07T23:42:13.446Z,41.90
2019-05-07T23:44:43.326Z,41.40
2019-05-07T23:47:13.261Z,40.80
2019-05-07T23:49:43.173Z,40.70
2019-05-07T23:52:13.087Z,41.20
2019-05-07T23:54:42.974Z,40.60
2019-05-07T23:57:15.383Z,40.80
2019-05-07T23:59:44.020Z,42.00
